Buoy 51659

sailwx.info

Track history (hours):
 
Tides and Currents Weather Stations Pressure Air Temp Water Temp Dewpoint Dewpoint Depression Visibility Wind Speed Wind Dir Waves Ship Positions

Drifting buoy 51659

Last reported at 2017-Jan-16 22:00 UTC. Time now 2017-Jan-17 07:00 UTC.
Position S 14°28' E 174°35'.

Water temperature 29.6 ° C

Date/timePositionNaut miles runAvg speedWind from/ knotsBaromVisibWave heightAir tempDewpointWater temp
2017-Jan-16 22:00S 14°28' E 174°35'1 1.2 29.6
2017-Jan-16 21:00S 14°29' E 174°35'1 0.3 29.6
2017-Jan-16 19:00S 14°29' E 174°35'1 0.6 29.8
2017-Jan-16 18:00S 14°29' E 174°35'1 0.7 29.7
2017-Jan-16 16:00S 14°31' E 174°35'4 0.7 29.6
2017-Jan-16 10:00S 14°35' E 174°35'0 0.0 30.1
2017-Jan-16 09:00S 14°35' E 174°35'2 0.3 30.2
2017-Jan-16 03:00S 14°33' E 174°35'2 0.3 33.4
2017-Jan-15 21:00S 14°32' E 174°36'0 0.0 29.8
2017-Jan-15 20:00S 14°32' E 174°36'4 0.5 29.7
2017-Jan-15 11:00S 14°31' E 174°40'6 0.4 29.9
2017-Jan-14 19:00S 14°34' E 174°46'1 0.3 29.4
2017-Jan-14 17:00S 14°34' E 174°46'1 1.3 29.4
2017-Jan-14 16:00S 14°35' E 174°47'0 0.0 29.4
2017-Jan-14 15:00S 14°35' E 174°47'1 0.8 29.5
2017-Jan-14 14:00S 14°35' E 174°47'0 0.0 29.4
2017-Jan-14 10:00S 14°35' E 174°47'1 1.2 29.5
2017-Jan-14 09:00S 14°35' E 174°46'0 0.0 29.5
2017-Jan-14 08:00S 14°35' E 174°46'1 0.8 29.5
2017-Jan-14 07:00S 14°35' E 174°46'1 0.3 29.5
2017-Jan-14 05:00S 14°34' E 174°46'1 0.8 29.5
2017-Jan-14 04:00S 14°34' E 174°45'2 0.3 29.5
2017-Jan-13 22:00S 14°32' E 174°46'1 0.3 29.7
2017-Jan-13 20:00S 14°33' E 174°46'1 0.8 29.6
2017-Jan-13 19:00S 14°32' E 174°47'0 0.0 29.6
2017-Jan-13 18:00S 14°32' E 174°47'1 0.6 29.6
2017-Jan-13 17:00S 14°32' E 174°47'1 0.8 29.6
2017-Jan-13 16:00S 14°31' E 174°47'0 0.0 29.6
2017-Jan-13 15:00S 14°31' E 174°47'1 0.6 29.7
2017-Jan-13 14:00S 14°31' E 174°48'1 0.4 29.7
2017-Jan-13 11:00S 14°30' E 174°49'0 0.0 29.9
2017-Jan-13 10:00S 14°30' E 174°49'1 0.6 29.9
2017-Jan-13 09:00S 14°30' E 174°49'3 0.5 29.9
2017-Jan-13 03:00S 14°27' E 174°50'1 0.3 30.1
2017-Jan-13 01:00S 14°28' E 174°50'1 0.4 30.1
2017-Jan-12 22:00S 14°28' E 174°52'1 0.3 29.6
2017-Jan-12 20:00S 14°29' E 174°52'0 0.0 29.6
2017-Jan-12 19:00S 14°29' E 174°52'1 0.8 29.6
2017-Jan-12 18:00S 14°28' E 174°52'0 0.0 29.6
2017-Jan-12 17:00S 14°28' E 174°52'2 0.3 29.7
2017-Jan-12 10:00S 14°27' E 174°54'1 0.8 29.9
2017-Jan-12 09:00S 14°28' E 174°55'1 0.6 30.1
2017-Jan-12 08:00S 14°27' E 174°55'1 0.8 30.2
2017-Jan-12 07:00S 14°26' E 174°55'2 2.1 30.3
2017-Jan-12 06:00S 14°25' E 174°57'1 0.7 30.7
2017-Jan-12 04:00S 14°25' E 174°58'0 0.0 31.4
2017-Jan-12 03:00S 14°25' E 174°58'0 0.0 31.3
2017-Jan-12 01:00S 14°25' E 174°58'2 0.8 30.4
2017-Jan-11 22:00S 14°24' E 175°01'1 0.8 29.6
2017-Jan-11 21:00S 14°23' E 175°01'1 0.7 29.4
2017-Jan-11 19:00S 14°23' E 175°02'3 1.5 29.3
2017-Jan-11 17:00S 14°21' E 175°05'0 0.0 29.3
2017-Jan-11 16:00S 14°21' E 175°05'2 0.9 29.3
2017-Jan-11 14:00S 14°20' E 175°07'5 0.9 29.3
2017-Jan-11 09:00S 14°21' E 175°11'1 0.8 29.3
2017-Jan-11 08:00S 14°20' E 175°12'12 1.1 29.3
2017-Jan-10 21:00S 14°25' E 175°23'1 1.2 29.4
2017-Jan-10 20:00S 14°26' E 175°23'2 1.8 29.4
2017-Jan-10 19:00S 14°26' E 175°25'1 1.3 29.4
2017-Jan-10 18:00S 14°27' E 175°25'1 0.8 29.4
2017-Jan-10 17:00S 14°28' E 175°25'1 0.3 29.4
2017-Jan-10 14:00S 14°28' E 175°26'0 0.0 29.5
2017-Jan-10 13:00S 14°28' E 175°26'1 0.7 29.5
2017-Jan-10 11:00S 14°29' E 175°27'2 0.7 29.6
2017-Jan-10 08:00S 14°28' E 175°29'0 0.0 29.7
2017-Jan-10 07:00S 14°28' E 175°29'2 1.7 29.8
2017-Jan-10 06:00S 14°28' E 175°31'10 1.2 29.9
2017-Jan-09 22:00S 14°25' E 175°40'5 1.2 29.4
2017-Jan-09 18:00S 14°26' E 175°45'2 1.7 29.2
2017-Jan-09 17:00S 14°26' E 175°47'2 2.1 29.3
2017-Jan-09 16:00S 14°27' E 175°49'0 0.0 29.3
2017-Jan-09 15:00S 14°27' E 175°49'3 2.6 29.3
2017-Jan-09 14:00S 14°28' E 175°51'3 2.6 29.3
2017-Jan-09 13:00S 14°27' E 175°49'4 1.0 29.3
2017-Jan-09 09:00S 14°29' E 175°52'2 2.3 29.3
2017-Jan-09 08:00S 14°29' E 175°55'5 0.5 29.3
2017-Jan-08 22:00S 14°32' E 175°58'2 1.1 29.4
2017-Jan-08 20:00S 14°34' E 175°59'2 1.7 29.3
2017-Jan-08 19:00S 14°35' E 176°01'2 2.1 29.3
2017-Jan-08 18:00S 14°37' E 176°02'0 0.0 29.3
2017-Jan-08 17:00S 14°37' E 176°02'2 2.4 29.3
2017-Jan-08 16:00S 14°39' E 176°02'0 0.0 29.3
2017-Jan-08 15:00S 14°39' E 176°02'2 0.5 29.4
2017-Jan-08 11:00S 14°41' E 176°03'1 0.3 29.4
2017-Jan-08 09:00S 14°41' E 176°04'1 0.8 29.4
2017-Jan-08 08:00S 14°40' E 176°04'7 0.7 29.4
2017-Jan-07 22:00S 14°35' E 176°08'0 0.0 29.5
2017-Jan-07 21:00S 14°35' E 176°08'1 1.3 29.5
2017-Jan-07 20:00S 14°34' E 176°10'2 1.8 29.4
2017-Jan-07 19:00S 14°34' E 176°11'1 0.3 29.4
2017-Jan-07 17:00S 14°33' E 176°11'9 2.9 29.4
2017-Jan-07 14:00S 14°32' E 176°20'2 0.5 29.6
2017-Jan-07 09:00S 14°32' E 176°23'2 2.1 29.7
2017-Jan-07 08:00S 14°31' E 176°25'1 0.6 29.8
2017-Jan-07 07:00S 14°31' E 176°25'6 1.9 29.9
2017-Jan-07 04:00S 14°32' E 176°31'10 1.7 30.6
2017-Jan-06 22:00S 14°37' E 176°40'   29.4
Track history (hours):
 
Tides and Currents Weather Stations Pressure Air Temp Water Temp Dewpoint Dewpoint Depression Visibility Wind Speed Wind Dir Waves Ship Positions

Drifting buoy 51659

Last reported at 2017-Jan-16 22:00 UTC. Time now 2017-Jan-17 07:00 UTC.
Position S 14°28' E 174°35'.

Water temperature 29.6 ° C

Date/timePositionNaut miles runAvg speedWind from/ knotsBaromVisibWave heightAir tempDewpointWater temp
2017-Jan-16 22:00S 14°28' E 174°35'1 1.2 29.6
2017-Jan-16 21:00S 14°29' E 174°35'1 0.3 29.6
2017-Jan-16 19:00S 14°29' E 174°35'1 0.6 29.8
2017-Jan-16 18:00S 14°29' E 174°35'1 0.7 29.7
2017-Jan-16 16:00S 14°31' E 174°35'4 0.7 29.6
2017-Jan-16 10:00S 14°35' E 174°35'0 0.0 30.1
2017-Jan-16 09:00S 14°35' E 174°35'2 0.3 30.2
2017-Jan-16 03:00S 14°33' E 174°35'2 0.3 33.4
2017-Jan-15 21:00S 14°32' E 174°36'0 0.0 29.8
2017-Jan-15 20:00S 14°32' E 174°36'4 0.5 29.7
2017-Jan-15 11:00S 14°31' E 174°40'6 0.4 29.9
2017-Jan-14 19:00S 14°34' E 174°46'1 0.3 29.4
2017-Jan-14 17:00S 14°34' E 174°46'1 1.3 29.4
2017-Jan-14 16:00S 14°35' E 174°47'0 0.0 29.4
2017-Jan-14 15:00S 14°35' E 174°47'1 0.8 29.5
2017-Jan-14 14:00S 14°35' E 174°47'0 0.0 29.4
2017-Jan-14 10:00S 14°35' E 174°47'1 1.2 29.5
2017-Jan-14 09:00S 14°35' E 174°46'0 0.0 29.5
2017-Jan-14 08:00S 14°35' E 174°46'1 0.8 29.5
2017-Jan-14 07:00S 14°35' E 174°46'1 0.3 29.5
2017-Jan-14 05:00S 14°34' E 174°46'1 0.8 29.5
2017-Jan-14 04:00S 14°34' E 174°45'2 0.3 29.5
2017-Jan-13 22:00S 14°32' E 174°46'1 0.3 29.7
2017-Jan-13 20:00S 14°33' E 174°46'1 0.8 29.6
2017-Jan-13 19:00S 14°32' E 174°47'0 0.0 29.6
2017-Jan-13 18:00S 14°32' E 174°47'1 0.6 29.6
2017-Jan-13 17:00S 14°32' E 174°47'1 0.8 29.6
2017-Jan-13 16:00S 14°31' E 174°47'0 0.0 29.6
2017-Jan-13 15:00S 14°31' E 174°47'1 0.6 29.7
2017-Jan-13 14:00S 14°31' E 174°48'1 0.4 29.7
2017-Jan-13 11:00S 14°30' E 174°49'0 0.0 29.9
2017-Jan-13 10:00S 14°30' E 174°49'1 0.6 29.9
2017-Jan-13 09:00S 14°30' E 174°49'3 0.5 29.9
2017-Jan-13 03:00S 14°27' E 174°50'1 0.3 30.1
2017-Jan-13 01:00S 14°28' E 174°50'1 0.4 30.1
2017-Jan-12 22:00S 14°28' E 174°52'1 0.3 29.6
2017-Jan-12 20:00S 14°29' E 174°52'0 0.0 29.6
2017-Jan-12 19:00S 14°29' E 174°52'1 0.8 29.6
2017-Jan-12 18:00S 14°28' E 174°52'0 0.0 29.6
2017-Jan-12 17:00S 14°28' E 174°52'2 0.3 29.7
2017-Jan-12 10:00S 14°27' E 174°54'1 0.8 29.9
2017-Jan-12 09:00S 14°28' E 174°55'1 0.6 30.1
2017-Jan-12 08:00S 14°27' E 174°55'1 0.8 30.2
2017-Jan-12 07:00S 14°26' E 174°55'2 2.1 30.3
2017-Jan-12 06:00S 14°25' E 174°57'1 0.7 30.7
2017-Jan-12 04:00S 14°25' E 174°58'0 0.0 31.4
2017-Jan-12 03:00S 14°25' E 174°58'0 0.0 31.3
2017-Jan-12 01:00S 14°25' E 174°58'2 0.8 30.4
2017-Jan-11 22:00S 14°24' E 175°01'1 0.8 29.6
2017-Jan-11 21:00S 14°23' E 175°01'1 0.7 29.4
2017-Jan-11 19:00S 14°23' E 175°02'3 1.5 29.3
2017-Jan-11 17:00S 14°21' E 175°05'0 0.0 29.3
2017-Jan-11 16:00S 14°21' E 175°05'2 0.9 29.3
2017-Jan-11 14:00S 14°20' E 175°07'5 0.9 29.3
2017-Jan-11 09:00S 14°21' E 175°11'1 0.8 29.3
2017-Jan-11 08:00S 14°20' E 175°12'12 1.1 29.3
2017-Jan-10 21:00S 14°25' E 175°23'1 1.2 29.4
2017-Jan-10 20:00S 14°26' E 175°23'2 1.8 29.4
2017-Jan-10 19:00S 14°26' E 175°25'1 1.3 29.4
2017-Jan-10 18:00S 14°27' E 175°25'1 0.8 29.4
2017-Jan-10 17:00S 14°28' E 175°25'1 0.3 29.4
2017-Jan-10 14:00S 14°28' E 175°26'0 0.0 29.5
2017-Jan-10 13:00S 14°28' E 175°26'1 0.7 29.5
2017-Jan-10 11:00S 14°29' E 175°27'2 0.7 29.6
2017-Jan-10 08:00S 14°28' E 175°29'0 0.0 29.7
2017-Jan-10 07:00S 14°28' E 175°29'2 1.7 29.8
2017-Jan-10 06:00S 14°28' E 175°31'10 1.2 29.9
2017-Jan-09 22:00S 14°25' E 175°40'5 1.2 29.4
2017-Jan-09 18:00S 14°26' E 175°45'2 1.7 29.2
2017-Jan-09 17:00S 14°26' E 175°47'2 2.1 29.3
2017-Jan-09 16:00S 14°27' E 175°49'0 0.0 29.3
2017-Jan-09 15:00S 14°27' E 175°49'3 2.6 29.3
2017-Jan-09 14:00S 14°28' E 175°51'3 2.6 29.3
2017-Jan-09 13:00S 14°27' E 175°49'4 1.0 29.3
2017-Jan-09 09:00S 14°29' E 175°52'2 2.3 29.3
2017-Jan-09 08:00S 14°29' E 175°55'5 0.5 29.3
2017-Jan-08 22:00S 14°32' E 175°58'2 1.1 29.4
2017-Jan-08 20:00S 14°34' E 175°59'2 1.7 29.3
2017-Jan-08 19:00S 14°35' E 176°01'2 2.1 29.3
2017-Jan-08 18:00S 14°37' E 176°02'0 0.0 29.3
2017-Jan-08 17:00S 14°37' E 176°02'2 2.4 29.3
2017-Jan-08 16:00S 14°39' E 176°02'0 0.0 29.3
2017-Jan-08 15:00S 14°39' E 176°02'2 0.5 29.4
2017-Jan-08 11:00S 14°41' E 176°03'1 0.3 29.4
2017-Jan-08 09:00S 14°41' E 176°04'1 0.8 29.4
2017-Jan-08 08:00S 14°40' E 176°04'7 0.7 29.4
2017-Jan-07 22:00S 14°35' E 176°08'0 0.0 29.5
2017-Jan-07 21:00S 14°35' E 176°08'1 1.3 29.5
2017-Jan-07 20:00S 14°34' E 176°10'2 1.8 29.4
2017-Jan-07 19:00S 14°34' E 176°11'1 0.3 29.4
2017-Jan-07 17:00S 14°33' E 176°11'9 2.9 29.4
2017-Jan-07 14:00S 14°32' E 176°20'2 0.5 29.6
2017-Jan-07 09:00S 14°32' E 176°23'2 2.1 29.7
2017-Jan-07 08:00S 14°31' E 176°25'1 0.6 29.8
2017-Jan-07 07:00S 14°31' E 176°25'6 1.9 29.9
2017-Jan-07 04:00S 14°32' E 176°31'10 1.7 30.6
2017-Jan-06 22:00S 14°37' E 176°40'   29.4

Dump ship's entire track history